createdAt,value
2019-05-29T00:00:18.273Z,99092.84
2019-05-29T00:02:56.482Z,99094.77
2019-05-29T00:05:38.483Z,99094.42
2019-05-29T00:08:18.535Z,99095.05
2019-05-29T00:10:50.742Z,99090.67
2019-05-29T00:13:24.282Z,99099.84
2019-05-29T00:15:57.182Z,99105.78
2019-05-29T00:18:29.752Z,99114.36
2019-05-29T00:21:02.614Z,99111.43
2019-05-29T00:23:35.141Z,99110.84
2019-05-29T00:26:08.298Z,99111.71
2019-05-29T00:28:41.262Z,99120.38
2019-05-29T00:31:14.073Z,99119.56
2019-05-29T00:33:46.662Z,99116.84
2019-05-29T00:36:19.195Z,99114.34
2019-05-29T00:38:51.832Z,99119.52
2019-05-29T00:41:24.432Z,99118.83
2019-05-29T00:43:57.012Z,99125.22
2019-05-29T00:46:29.675Z,99127.75
2019-05-29T00:49:02.282Z,99125.23
2019-05-29T00:51:34.793Z,99128.50
2019-05-29T00:54:08.238Z,99133.80
2019-05-29T00:56:40.842Z,99130.80
2019-05-29T00:59:13.352Z,99132.72
2019-05-29T01:01:45.783Z,99133.34
2019-05-29T01:04:18.362Z,99143.41
2019-05-29T01:06:50.932Z,99146.06
2019-05-29T01:09:24.483Z,99150.66
2019-05-29T01:11:57.061Z,99144.27
2019-05-29T01:14:32.672Z,99148.23
2019-05-29T01:17:05.133Z,99150.88
2019-05-29T01:19:37.682Z,99152.44
2019-05-29T01:22:12.303Z,99152.33
2019-05-29T01:24:44.972Z,99163.77
2019-05-29T01:27:18.878Z,99160.53
2019-05-29T01:29:51.534Z,99158.86
2019-05-29T01:32:24.023Z,99153.69
2019-05-29T01:34:56.767Z,99157.89
2019-05-29T01:37:29.224Z,99158.87
2019-05-29T01:40:16.602Z,99157.66
2019-05-29T01:42:35.901Z,99154.44
2019-05-29T01:45:08.968Z,99158.13
2019-05-29T01:47:41.462Z,99160.78
2019-05-29T01:50:15.581Z,99158.52
2019-05-29T01:52:50.283Z,99159.38
2019-05-29T01:55:23.827Z,99164.55
2019-05-29T01:57:56.492Z,99164.16
2019-05-29T02:00:29.063Z,99167.19
2019-05-29T02:03:02.214Z,99168.63
2019-05-29T02:05:34.845Z,99171.39
2019-05-29T02:08:07.482Z,99172.09
2019-05-29T02:10:40.903Z,99172.48
2019-05-29T02:13:17.267Z,99175.70
2019-05-29T02:15:49.962Z,99173.69
2019-05-29T02:18:23.028Z,99178.62
2019-05-29T02:20:55.672Z,99180.88
2019-05-29T02:23:28.352Z,99179.44
2019-05-29T02:26:02.365Z,99183.17
2019-05-29T02:28:35.272Z,99188.22
2019-05-29T02:31:07.941Z,99194.47
2019-05-29T02:33:40.703Z,99203.88
2019-05-29T02:36:13.412Z,99208.54
2019-05-29T02:38:45.984Z,99202.17
2019-05-29T02:41:19.122Z,99205.91
2019-05-29T02:43:52.931Z,99206.97
2019-05-29T02:46:28.568Z,99210.92
2019-05-29T02:49:01.345Z,99218.16
2019-05-29T02:51:33.967Z,99220.19
2019-05-29T02:54:06.668Z,99227.53
2019-05-29T02:56:42.481Z,99227.15
2019-05-29T02:59:13.535Z,99230.18
2019-05-29T03:01:49.330Z,99233.41
2019-05-29T03:04:26.218Z,99243.98
2019-05-29T03:06:59.564Z,99247.59
2019-05-29T03:09:32.701Z,99256.84
2019-05-29T03:12:05.570Z,99256.84
2019-05-29T03:14:38.163Z,99267.42
2019-05-29T03:17:12.172Z,99266.58
2019-05-29T03:19:45.774Z,99273.56
2019-05-29T03:22:18.417Z,99274.03
2019-05-29T03:24:51.212Z,99278.11
2019-05-29T03:27:23.652Z,99282.20
2019-05-29T03:29:56.247Z,99281.13
2019-05-29T03:32:32.433Z,99292.06
2019-05-29T03:35:02.905Z,99299.27
2019-05-29T03:37:35.684Z,99307.66
2019-05-29T03:40:08.427Z,99306.61
2019-05-29T03:42:41.075Z,99304.78
2019-05-29T03:45:14.069Z,99314.28
2019-05-29T03:47:46.816Z,99320.06
2019-05-29T03:50:19.716Z,99327.14
2019-05-29T03:52:52.232Z,99334.49
2019-05-29T03:55:24.806Z,99338.09
2019-05-29T03:57:57.623Z,99334.48
2019-05-29T04:00:38.899Z,99338.69
2019-05-29T04:03:08.774Z,99344.94
2019-05-29T04:05:41.588Z,99345.07
2019-05-29T04:08:15.994Z,99354.32
2019-05-29T04:10:51.734Z,99355.50
2019-05-29T04:13:27.463Z,99358.48
2019-05-29T04:16:02.175Z,99370.44
2019-05-29T04:18:35.941Z,99381.09
2019-05-29T04:21:11.485Z,99391.91
2019-05-29T04:23:46.415Z,99392.95
2019-05-29T04:26:20.652Z,99403.23
2019-05-29T04:28:53.782Z,99408.27
2019-05-29T04:31:28.059Z,99412.19
2019-05-29T04:34:00.878Z,99416.86
2019-05-29T04:36:34.862Z,99419.86
2019-05-29T04:39:08.409Z,99421.75
2019-05-29T04:41:45.255Z,99418.60
2019-05-29T04:44:17.934Z,99422.56
2019-05-29T04:47:07.099Z,99426.73
2019-05-29T04:49:29.212Z,99428.80
2019-05-29T04:52:01.793Z,99428.05
2019-05-29T04:54:35.403Z,99434.91
2019-05-29T04:57:10.182Z,99436.73
2019-05-29T04:59:42.902Z,99448.11
2019-05-29T05:02:15.532Z,99450.63
2019-05-29T05:04:49.512Z,99456.59
2019-05-29T05:07:22.354Z,99460.30
2019-05-29T05:09:54.943Z,99471.71
2019-05-29T05:12:27.713Z,99477.15
2019-05-29T05:15:03.521Z,99478.50
2019-05-29T05:17:36.278Z,99486.31
2019-05-29T05:20:09.193Z,99488.09
2019-05-29T05:22:41.652Z,99499.56
2019-05-29T05:25:16.121Z,99499.56
2019-05-29T05:27:53.322Z,99504.63
2019-05-29T05:30:25.922Z,99506.59
2019-05-29T05:32:58.797Z,99516.95
2019-05-29T05:35:32.587Z,99524.69
2019-05-29T05:38:06.711Z,99522.05
2019-05-29T05:40:41.873Z,99531.38
2019-05-29T05:43:23.524Z,99534.98
2019-05-29T05:45:49.894Z,99543.95
2019-05-29T05:48:22.623Z,99548.88
2019-05-29T05:50:58.752Z,99551.61
2019-05-29T05:53:31.395Z,99553.00
2019-05-29T05:56:04.497Z,99549.34
2019-05-29T05:58:37.823Z,99554.82
2019-05-29T06:01:11.905Z,99562.17
2019-05-29T06:03:44.883Z,99562.87
2019-05-29T06:06:19.382Z,99568.41
2019-05-29T06:08:56.112Z,99568.93
2019-05-29T06:11:30.673Z,99574.23
2019-05-29T06:14:04.553Z,99562.84
2019-05-29T06:16:37.096Z,99583.33
2019-05-29T06:19:22.181Z,99580.39
2019-05-29T06:21:56.773Z,99587.47
2019-05-29T06:24:29.292Z,99586.77
2019-05-29T06:27:07.842Z,99590.91
2019-05-29T06:29:45.157Z,99588.72
2019-05-29T06:32:20.812Z,99592.94
2019-05-29T06:34:58.816Z,99602.66
2019-05-29T06:37:33.599Z,99609.81
2019-05-29T06:40:08.032Z,99611.19
2019-05-29T06:42:44.732Z,99613.10
2019-05-29T06:45:28.823Z,99615.66
2019-05-29T06:48:04.095Z,99624.34
2019-05-29T06:50:39.261Z,99631.97
2019-05-29T06:53:14.672Z,99631.39
2019-05-29T06:55:53.835Z,99634.12
2019-05-29T06:58:31.333Z,99644.38
2019-05-29T07:01:10.726Z,99646.66
2019-05-29T07:03:49.589Z,99659.47
2019-05-29T07:06:24.176Z,99658.64
2019-05-29T07:09:02.623Z,99660.63
2019-05-29T07:11:37.703Z,99664.58
2019-05-29T07:14:13.216Z,99671.94
2019-05-29T07:16:55.650Z,99673.36
2019-05-29T07:19:45.137Z,99683.25
2019-05-29T07:22:38.921Z,99688.70
2019-05-29T07:25:49.813Z,99695.08
2019-05-29T07:29:03.086Z,99698.11
2019-05-29T07:32:09.762Z,99707.98
2019-05-29T07:35:22.602Z,99711.37
2019-05-29T07:38:02.783Z,99713.81
2019-05-29T07:40:38.401Z,99728.70
2019-05-29T07:43:17.096Z,99730.55
2019-05-29T07:45:51.783Z,99733.65
2019-05-29T07:48:27.363Z,99750.97
2019-05-29T07:51:06.893Z,99747.97
2019-05-29T07:53:36.085Z,99762.83
2019-05-29T07:56:22.148Z,99766.41
2019-05-29T07:59:01.831Z,99781.74
2019-05-29T08:01:25.683Z,99784.38
2019-05-29T08:03:58.542Z,99784.46
2019-05-29T08:06:32.846Z,99792.97
2019-05-29T08:09:12.502Z,99797.63
2019-05-29T08:11:45.661Z,99805.56
2019-05-29T08:14:20.813Z,99810.08
2019-05-29T08:16:53.983Z,99821.44
2019-05-29T08:19:26.612Z,99823.05
2019-05-29T08:21:59.292Z,99833.70
2019-05-29T08:24:32.033Z,99836.29
2019-05-29T08:27:10.671Z,99833.95
2019-05-29T08:29:58.191Z,99835.09
2019-05-29T08:32:34.498Z,99839.48
2019-05-29T08:35:09.998Z,99841.45
2019-05-29T08:37:44.862Z,99849.44
2019-05-29T08:40:23.462Z,99853.10
2019-05-29T08:42:58.112Z,99855.42
2019-05-29T08:45:35.623Z,99865.20
2019-05-29T08:48:09.722Z,99863.22
2019-05-29T08:50:45.690Z,99878.69
2019-05-29T08:53:20.092Z,99874.37
2019-05-29T08:55:56.027Z,99873.58
2019-05-29T08:58:31.276Z,99888.84
2019-05-29T09:01:06.116Z,99891.55
2019-05-29T09:03:44.867Z,99899.28
2019-05-29T09:06:19.760Z,99896.65
2019-05-29T09:08:56.741Z,99905.00
2019-05-29T09:11:31.821Z,99915.68
2019-05-29T09:14:06.772Z,99912.16
2019-05-29T09:16:40.850Z,99916.05
2019-05-29T09:19:14.413Z,99919.08
2019-05-29T09:21:49.721Z,99920.48
2019-05-29T09:24:24.033Z,99927.00
2019-05-29T09:26:58.324Z,99930.88
2019-05-29T09:29:37.592Z,99932.48
2019-05-29T09:32:14.840Z,99945.28
2019-05-29T09:34:50.246Z,99942.64
2019-05-29T09:37:26.853Z,99945.07
2019-05-29T09:40:04.633Z,99954.42
2019-05-29T09:42:40.746Z,99955.81
2019-05-29T09:45:23.433Z,99965.03
2019-05-29T09:47:59.192Z,99966.27
2019-05-29T09:50:49.335Z,99970.70
2019-05-29T09:53:09.161Z,99974.78
2019-05-29T09:55:42.772Z,99984.38
2019-05-29T09:58:18.995Z,99978.99
2019-05-29T10:01:15.876Z,99988.38
2019-05-29T10:03:28.545Z,99998.05
2019-05-29T10:08:23.528Z,99998.23
2019-05-29T10:11:08.441Z,100004.23
2019-05-29T10:13:38.837Z,100007.27
2019-05-29T10:16:14.444Z,100009.22
2019-05-29T10:18:48.293Z,100012.94
2019-05-29T10:21:38.638Z,100013.61
2019-05-29T10:24:14.794Z,100012.02
2019-05-29T10:26:49.854Z,100014.94
2019-05-29T10:29:26.592Z,100017.77
2019-05-29T10:32:00.515Z,100009.27
2019-05-29T10:34:39.073Z,100018.09
2019-05-29T10:37:26.375Z,100017.36
2019-05-29T10:39:59.965Z,100016.95
2019-05-29T10:42:36.903Z,100022.09
2019-05-29T10:45:17.792Z,100025.53
2019-05-29T10:47:54.169Z,100026.69
2019-05-29T10:50:27.277Z,100034.65
2019-05-29T10:53:02.681Z,100036.55
2019-05-29T10:55:36.371Z,100043.44
2019-05-29T10:58:11.383Z,100050.77
2019-05-29T11:00:49.158Z,100049.28
2019-05-29T11:03:24.592Z,100046.77
2019-05-29T11:05:58.516Z,100049.20
2019-05-29T11:08:36.151Z,100051.34
2019-05-29T11:11:09.961Z,100050.60
2019-05-29T11:13:44.763Z,100052.16
2019-05-29T11:16:17.332Z,100055.16
2019-05-29T11:18:51.237Z,100054.11
2019-05-29T11:21:23.992Z,100059.02
2019-05-29T11:23:58.187Z,100066.36
2019-05-29T11:26:31.293Z,100071.67
2019-05-29T11:29:04.936Z,100080.84
2019-05-29T11:31:39.183Z,100082.33
2019-05-29T11:34:11.963Z,100083.81
2019-05-29T11:36:44.986Z,100079.44
2019-05-29T11:39:18.513Z,100077.83
2019-05-29T11:41:55.229Z,100085.36
2019-05-29T11:44:28.423Z,100091.91
2019-05-29T11:47:04.104Z,100097.90
2019-05-29T11:49:37.527Z,100101.06
2019-05-29T11:52:23.645Z,100105.02
2019-05-29T11:54:46.004Z,100106.85
2019-05-29T11:57:20.704Z,100114.83
2019-05-29T12:00:00.079Z,100115.11
2019-05-29T12:02:31.570Z,100121.02
2019-05-29T12:05:04.397Z,100121.26
2019-05-29T12:07:37.763Z,100120.23
2019-05-29T12:10:12.312Z,100125.86
2019-05-29T12:12:45.966Z,100128.14
2019-05-29T12:15:20.723Z,100122.13
2019-05-29T12:18:12.448Z,100130.25
2019-05-29T12:20:38.879Z,100128.36
2019-05-29T12:23:25.821Z,100128.93
2019-05-29T12:26:10.305Z,100134.80
2019-05-29T12:28:26.135Z,100143.29
2019-05-29T12:30:59.481Z,100149.15
2019-05-29T12:33:41.533Z,100144.82
2019-05-29T12:36:28.605Z,100151.43
2019-05-29T12:39:02.166Z,100154.93
2019-05-29T12:41:38.760Z,100158.10
2019-05-29T12:44:16.173Z,100159.13
2019-05-29T12:46:51.020Z,100168.05
2019-05-29T12:49:24.304Z,100161.59
2019-05-29T12:52:02.462Z,100175.25
2019-05-29T12:54:39.902Z,100169.41
2019-05-29T12:57:13.094Z,100174.42
2019-05-29T12:59:48.113Z,100172.78
2019-05-29T13:02:21.133Z,100171.09
2019-05-29T13:05:16.358Z,100167.75
2019-05-29T13:07:41.431Z,100166.95
2019-05-29T13:10:29.375Z,100174.64
2019-05-29T13:12:49.033Z,100175.29
2019-05-29T13:15:22.273Z,100171.41
2019-05-29T13:18:00.959Z,100174.77
2019-05-29T13:20:29.171Z,100171.65
2019-05-29T13:23:03.628Z,100173.99
2019-05-29T13:25:36.683Z,100169.37
2019-05-29T13:28:09.303Z,100173.08
2019-05-29T13:30:41.913Z,100179.13
2019-05-29T13:33:14.546Z,100178.73
2019-05-29T13:35:47.214Z,100184.18
2019-05-29T13:38:19.762Z,100180.75
2019-05-29T13:40:53.397Z,100190.27
2019-05-29T13:43:25.953Z,100186.72
2019-05-29T13:45:58.684Z,100188.91
2019-05-29T13:48:31.333Z,100182.69
2019-05-29T13:51:05.381Z,100181.55
2019-05-29T13:53:38.377Z,100188.34
2019-05-29T13:56:11.136Z,100185.36
2019-05-29T13:58:43.657Z,100183.69
2019-05-29T14:01:16.459Z,100184.28
2019-05-29T14:03:50.661Z,100184.66
2019-05-29T14:06:23.950Z,100187.22
2019-05-29T14:08:56.719Z,100187.40
2019-05-29T14:11:29.566Z,100193.04
2019-05-29T14:14:04.070Z,100186.25
2019-05-29T14:16:36.283Z,100190.50
2019-05-29T14:19:09.464Z,100192.13
2019-05-29T14:21:41.953Z,100200.69
2019-05-29T14:24:28.158Z,100194.36
2019-05-29T14:26:49.537Z,100200.88
2019-05-29T14:29:22.225Z,100201.85
2019-05-29T14:31:54.918Z,100198.45
2019-05-29T14:34:30.386Z,100211.55
2019-05-29T14:37:04.931Z,100216.04
2019-05-29T14:39:37.503Z,100218.66
2019-05-29T14:42:11.805Z,100220.34
2019-05-29T14:44:44.652Z,100223.69
2019-05-29T14:47:17.563Z,100229.91
2019-05-29T14:49:50.233Z,100224.72
2019-05-29T14:52:23.044Z,100232.09
2019-05-29T14:54:56.394Z,100237.30
2019-05-29T14:57:29.412Z,100237.67
2019-05-29T15:00:07.035Z,100244.47
2019-05-29T15:02:36.932Z,100241.92
2019-05-29T15:05:09.965Z,100249.22
2019-05-29T15:07:43.213Z,100245.91
2019-05-29T15:10:27.490Z,100244.02
2019-05-29T15:12:58.240Z,100244.72
2019-05-29T15:15:36.472Z,100240.30
2019-05-29T15:18:13.701Z,100243.52
2019-05-29T15:20:45.772Z,100249.16
2019-05-29T15:23:18.383Z,100250.41
2019-05-29T15:25:55.242Z,100249.16
2019-05-29T15:28:28.450Z,100252.92
2019-05-29T15:31:01.077Z,100259.41
2019-05-29T15:33:34.046Z,100261.76
2019-05-29T15:36:13.270Z,100269.14
2019-05-29T15:38:46.272Z,100266.50
2019-05-29T15:41:19.044Z,100266.70
2019-05-29T15:43:53.615Z,100263.98
2019-05-29T15:48:53.293Z,100272.11
2019-05-29T15:51:26.123Z,100277.05
2019-05-29T15:53:58.910Z,100277.50
2019-05-29T15:56:32.153Z,100279.11
2019-05-29T15:59:05.272Z,100283.53
2019-05-29T16:01:42.414Z,100285.11
2019-05-29T16:04:15.798Z,100289.44
2019-05-29T16:06:55.103Z,100292.45
2019-05-29T16:09:29.444Z,100288.98
2019-05-29T16:12:05.363Z,100296.74
2019-05-29T16:14:42.484Z,100290.17
2019-05-29T16:17:15.603Z,100294.56
2019-05-29T16:19:48.844Z,100298.81
2019-05-29T16:22:23.952Z,100297.20
2019-05-29T16:24:56.763Z,100308.63
2019-05-29T16:27:31.119Z,100310.87
2019-05-29T16:30:04.596Z,100312.39
2019-05-29T16:32:37.940Z,100311.52
2019-05-29T16:35:12.944Z,100310.66
2019-05-29T16:37:46.365Z,100313.12
2019-05-29T16:40:19.933Z,100315.56
2019-05-29T16:42:53.241Z,100317.70
2019-05-29T16:45:26.723Z,100325.34
2019-05-29T16:47:59.792Z,100324.52
2019-05-29T16:50:32.563Z,100332.90
2019-05-29T16:53:05.212Z,100336.11
2019-05-29T16:55:51.065Z,100338.05
2019-05-29T16:58:13.247Z,100341.64
2019-05-29T17:00:45.992Z,100343.42
2019-05-29T17:03:19.687Z,100342.50
2019-05-29T17:05:52.442Z,100348.16
2019-05-29T17:08:25.106Z,100352.87
2019-05-29T17:10:57.513Z,100348.91
2019-05-29T17:13:31.463Z,100360.70
2019-05-29T17:16:03.842Z,100358.16
2019-05-29T17:18:36.499Z,100370.52
2019-05-29T17:21:09.364Z,100364.16
2019-05-29T17:23:41.875Z,100369.45
2019-05-29T17:26:14.710Z,100376.83
2019-05-29T17:28:47.945Z,100376.83
2019-05-29T17:31:20.912Z,100373.78
2019-05-29T17:33:53.962Z,100376.91
2019-05-29T17:36:28.679Z,100383.68
2019-05-29T17:39:00.623Z,100383.88
2019-05-29T17:41:33.962Z,100391.88
2019-05-29T17:44:06.708Z,100389.02
2019-05-29T17:46:39.833Z,100393.52
2019-05-29T17:49:12.943Z,100393.14
2019-05-29T17:51:45.801Z,100393.63
2019-05-29T17:54:18.353Z,100396.72
2019-05-29T17:56:51.882Z,100397.75
2019-05-29T17:59:24.692Z,100398.69
2019-05-29T18:01:57.567Z,100399.63
2019-05-29T18:04:31.513Z,100403.67
2019-05-29T18:07:04.002Z,100402.97
2019-05-29T18:09:36.662Z,100410.13
2019-05-29T18:12:09.443Z,100413.42
2019-05-29T18:15:19.725Z,100417.53
2019-05-29T18:17:51.303Z,100419.87
2019-05-29T18:20:37.051Z,100424.48
2019-05-29T18:23:12.242Z,100428.89
2019-05-29T18:25:45.232Z,100432.89
2019-05-29T18:28:18.182Z,100432.67
2019-05-29T18:31:39.469Z,100437.19
2019-05-29T18:34:51.764Z,100437.83
2019-05-29T18:41:50.962Z,100448.02
2019-05-29T18:44:24.804Z,100450.05
2019-05-29T18:46:57.326Z,100448.88
2019-05-29T18:49:29.813Z,100440.05
2019-05-29T18:52:02.302Z,100446.05
2019-05-29T18:54:34.928Z,100451.92
2019-05-29T18:57:15.350Z,100456.06
2019-05-29T18:59:42.253Z,100466.76
2019-05-29T19:02:14.946Z,100468.71
2019-05-29T19:04:47.443Z,100468.71
2019-05-29T19:07:23.724Z,100470.41
2019-05-29T19:09:56.862Z,100470.41
2019-05-29T19:12:30.051Z,100472.25
2019-05-29T19:15:03.173Z,100476.01
2019-05-29T19:17:35.762Z,100478.86
2019-05-29T19:20:09.350Z,100477.55
2019-05-29T19:22:41.833Z,100475.30
2019-05-29T19:25:14.912Z,100484.91
2019-05-29T19:27:47.891Z,100480.58
2019-05-29T19:30:24.865Z,100482.27
2019-05-29T19:32:57.712Z,100484.46
2019-05-29T19:35:31.626Z,100487.17
2019-05-29T19:38:04.436Z,100485.85
2019-05-29T19:40:37.113Z,100499.97
2019-05-29T19:43:10.351Z,100502.23
2019-05-29T19:45:43.252Z,100504.86
2019-05-29T19:48:15.912Z,100507.16
2019-05-29T19:50:51.944Z,100513.92
2019-05-29T19:53:26.864Z,100515.17
2019-05-29T19:56:02.003Z,100513.05
2019-05-29T19:58:36.135Z,100514.86
2019-05-29T20:01:09.193Z,100520.97
2019-05-29T20:03:47.887Z,100529.05
2019-05-29T20:06:25.372Z,100531.75
2019-05-29T20:09:02.623Z,100526.09
2019-05-29T20:11:37.865Z,100540.05
2019-05-29T20:14:10.555Z,100541.05
2019-05-29T20:16:43.150Z,100544.13
2019-05-29T20:19:15.712Z,100545.94
2019-05-29T20:21:48.213Z,100548.95
2019-05-29T20:24:23.112Z,100545.94
2019-05-29T20:26:55.652Z,100549.48
2019-05-29T20:29:28.262Z,100555.23
2019-05-29T20:32:00.883Z,100549.65
2019-05-29T20:34:34.643Z,100562.97
2019-05-29T20:37:08.325Z,100562.52
2019-05-29T20:39:41.015Z,100567.72
2019-05-29T20:42:14.125Z,100572.98
2019-05-29T20:44:46.634Z,100569.94
2019-05-29T20:47:19.494Z,100569.94
2019-05-29T20:49:52.492Z,100567.23
2019-05-29T20:52:25.152Z,100574.30
2019-05-29T20:54:59.088Z,100573.30
2019-05-29T20:57:31.803Z,100578.47
2019-05-29T21:00:05.782Z,100577.25
2019-05-29T21:02:40.506Z,100583.42
2019-05-29T21:05:13.061Z,100585.23
2019-05-29T21:07:45.647Z,100580.48
2019-05-29T21:10:19.623Z,100582.87
2019-05-29T21:12:52.373Z,100581.55
2019-05-29T21:15:24.974Z,100594.27
2019-05-29T21:17:57.751Z,100590.83
2019-05-29T21:20:30.682Z,100594.95
2019-05-29T21:23:04.063Z,100598.80
2019-05-29T21:25:37.073Z,100601.53
2019-05-29T21:28:09.613Z,100611.27
2019-05-29T21:30:43.942Z,100616.78
2019-05-29T21:33:16.483Z,100623.42
2019-05-29T21:35:49.083Z,100623.87
2019-05-29T21:38:22.422Z,100627.52
2019-05-29T21:40:55.142Z,100621.09
2019-05-29T21:43:27.767Z,100621.54
2019-05-29T21:46:00.608Z,100630.05
2019-05-29T21:48:34.102Z,100637.64
2019-05-29T21:51:06.896Z,100641.27
2019-05-29T21:53:39.392Z,100639.50
2019-05-29T21:56:11.894Z,100643.61
2019-05-29T21:58:59.981Z,100653.41
2019-05-29T22:01:18.525Z,100652.77
2019-05-29T22:03:51.306Z,100658.32
2019-05-29T22:06:23.983Z,100660.30
2019-05-29T22:08:57.515Z,100657.86
2019-05-29T22:11:30.403Z,100658.69
2019-05-29T22:14:02.743Z,100665.78
2019-05-29T22:16:35.534Z,100663.42
2019-05-29T22:19:08.194Z,100665.79
2019-05-29T22:21:40.632Z,100664.53
2019-05-29T22:24:13.072Z,100667.50
2019-05-29T22:26:45.643Z,100671.19
2019-05-29T22:29:18.673Z,100682.75
2019-05-29T22:31:51.395Z,100683.36
2019-05-29T22:34:24.134Z,100690.92
2019-05-29T22:36:57.525Z,100692.50
2019-05-29T22:39:30.662Z,100702.69
2019-05-29T22:42:03.073Z,100703.26
2019-05-29T22:44:35.533Z,100699.69
2019-05-29T22:47:08.032Z,100700.83
2019-05-29T22:49:40.623Z,100697.33
2019-05-29T22:52:13.212Z,100697.86
2019-05-29T22:54:45.682Z,100694.56
2019-05-29T22:57:18.194Z,100696.59
2019-05-29T22:59:51.754Z,100700.59
2019-05-29T23:02:24.533Z,100702.16
2019-05-29T23:04:58.346Z,100706.32
2019-05-29T23:07:32.015Z,100704.73
2019-05-29T23:10:04.723Z,100711.83
2019-05-29T23:12:37.693Z,100708.53
2019-05-29T23:15:10.826Z,100712.94
2019-05-29T23:17:43.372Z,100706.52
2019-05-29T23:20:16.122Z,100711.04
2019-05-29T23:22:48.822Z,100715.53
2019-05-29T23:25:21.573Z,100707.26
2019-05-29T23:27:54.883Z,100701.33
2019-05-29T23:30:30.473Z,100707.37
2019-05-29T23:33:03.392Z,100719.04
2019-05-29T23:35:36.801Z,100719.48
2019-05-29T23:38:10.807Z,100722.25
2019-05-29T23:40:45.613Z,100724.11
2019-05-29T23:43:19.070Z,100720.75
2019-05-29T23:45:53.282Z,100718.66
2019-05-29T23:48:26.505Z,100723.57
2019-05-29T23:50:59.787Z,100718.03
2019-05-29T23:53:35.366Z,100717.34
2019-05-29T23:56:11.635Z,100722.75
2019-05-29T23:58:49.381Z,100719.00
